KHQM/HQM METAR and TAF weather

Enter ICAO airport designator
Station Type Date Time Source
KHQM METAR 2019/09/20 19:53 UTC NOAA

KHQM 201953Z AUTO 24008KT 8SM OVC025 17/15 A3013 RMK AO2 SLP205 T01720150


Station Type Date Time Source
KHQM Decoded METAR 2019/09/20 19:53 UTC NOAA

HOQUIAM BOWERMAN AIRPORT, WA, United States (KHQM) 46-58N 123-56W 7M
Sep 20, 2019 - 03:53 PM EDT / 2019.09.20 1953 UTC
Wind: from the WSW (240 degrees) at 9 MPH (8 KT):0
Visibility: 8 mile(s):0
Sky conditions: overcast
Temperature: 63.0 F (17.2 C)
Dew Point: 59.0 F (15.0 C)
Relative Humidity: 86%
Pressure (altimeter): 30.13 in. Hg (1020 hPa)
ob: KHQM 201953Z AUTO 24008KT 8SM OVC025 17/15 A3013 RMK AO2 SLP205 T01720150
cycle: 20

Station Type Date Time Source
KHQM TAF 2019/09/20 18:33 UTC NOAA

TAF KHQM 201731Z 2018/2118 27006KT P6SM SCT030 BKN050
FM210900 VRB03KT P6SM OVC011
FM211700 26006KT P6SM SCT012 OVC020

Example: see airport list